Terminal Aerodrome Forecast
Issued by NWS

Home | Current Version | Previous Version | Text Only | Print | Product List | Glossary On
Versions: 1 2 3 4 5 6 7 8 9 10 11 12
000
FTUS41 KPBZ 271100
TAFMGW
TAF
KMGW 271125Z 2712/2812 20003KT P6SM SCT040
     FM272000 28005KT P6SM VCSH BKN040
     FM280000 30005KT P6SM BKN035
     FM280500 34005KT P6SM SCT035=

USA.gov is the U.S. government's official web portal to all federal, state and local government web resources and services.